createdAt,value
2023-02-20T00:02:01.570Z,88.38
2023-02-20T00:04:29.125Z,89.60
2023-02-20T00:06:55.465Z,87.07
2023-02-20T00:09:21.841Z,85.60
2023-02-20T00:11:48.290Z,83.75
2023-02-20T00:14:14.560Z,82.15
2023-02-20T00:16:40.956Z,80.32
2023-02-20T00:19:07.261Z,80.35
2023-02-20T00:21:33.677Z,78.25
2023-02-20T00:24:00.085Z,77.00
2023-02-20T00:26:26.420Z,76.88
2023-02-20T00:28:52.677Z,73.47
2023-02-20T00:31:19.051Z,73.75
2023-02-20T00:33:45.483Z,71.95
2023-02-20T00:36:12.186Z,70.00
2023-02-20T00:38:38.640Z,69.05
2023-02-20T00:41:04.955Z,66.30
2023-02-20T00:43:31.638Z,66.18
2023-02-20T00:45:58.009Z,64.07
2023-02-20T00:48:24.313Z,66.57
2023-02-20T00:50:50.637Z,62.92
2023-02-20T00:53:16.964Z,59.50
2023-02-20T00:55:43.543Z,61.15
2023-02-20T00:58:10.176Z,60.20
2023-02-20T01:00:36.867Z,58.97
2023-02-20T01:03:03.402Z,56.42
2023-02-20T01:05:29.766Z,55.83
2023-02-20T01:07:56.124Z,56.75
2023-02-20T01:10:22.517Z,53.05
2023-02-20T01:12:48.961Z,53.83
2023-02-20T01:15:15.292Z,55.22
2023-02-20T01:17:41.661Z,51.20
2023-02-20T01:20:08.189Z,50.05
2023-02-20T01:22:34.771Z,50.55
2023-02-20T01:25:01.216Z,48.92
2023-02-20T01:27:28.315Z,47.25
2023-02-20T01:29:54.687Z,47.55
2023-02-20T01:32:21.467Z,45.47
2023-02-20T01:34:48.096Z,45.88
2023-02-20T01:37:14.872Z,44.60
2023-02-20T01:39:41.760Z,44.58
2023-02-20T01:42:08.121Z,44.10
2023-02-20T01:44:34.517Z,42.75
2023-02-20T01:47:00.976Z,42.47
2023-02-20T01:49:27.734Z,42.95
2023-02-20T01:51:54.047Z,41.25
2023-02-20T01:54:20.356Z,39.42
2023-02-20T01:56:46.725Z,38.13
2023-02-20T01:59:13.053Z,40.80
2023-02-20T02:01:39.787Z,38.97
2023-02-20T02:04:06.950Z,37.72
2023-02-20T02:06:34.285Z,37.03
2023-02-20T02:09:01.336Z,37.50
2023-02-20T02:11:27.722Z,36.40
2023-02-20T02:13:54.588Z,34.38
2023-02-20T02:16:20.982Z,33.67
2023-02-20T02:18:47.567Z,34.60
2023-02-20T02:21:14.045Z,33.65
2023-02-20T02:23:40.671Z,33.00
2023-02-20T02:26:07.274Z,32.45
2023-02-20T02:28:33.911Z,31.40
2023-02-20T02:31:00.424Z,30.95
2023-02-20T02:33:26.873Z,31.23
2023-02-20T02:35:53.519Z,30.38
2023-02-20T02:38:19.962Z,30.05
2023-02-20T02:40:46.437Z,29.80
2023-02-20T02:43:12.924Z,29.05
2023-02-20T02:45:39.626Z,28.55
2023-02-20T02:48:06.007Z,27.98
2023-02-20T02:50:32.739Z,27.45
2023-02-20T02:52:59.302Z,27.75
2023-02-20T02:55:25.686Z,27.25
2023-02-20T02:57:52.161Z,27.70
2023-02-20T03:00:18.502Z,25.67
2023-02-20T03:02:45.043Z,26.00
2023-02-20T03:05:11.468Z,25.42
2023-02-20T03:07:37.776Z,24.67
2023-02-20T03:10:04.126Z,24.38
2023-02-20T03:12:30.594Z,24.27
2023-02-20T03:14:57.220Z,24.05
2023-02-20T03:17:23.573Z,23.67
2023-02-20T03:19:49.916Z,22.75
2023-02-20T03:22:16.454Z,22.27
2023-02-20T03:24:43.267Z,23.17
2023-02-20T03:27:09.580Z,21.20
2023-02-20T03:29:36.435Z,21.67
2023-02-20T03:32:02.949Z,21.42
2023-02-20T03:34:29.498Z,20.67
2023-02-20T03:36:55.958Z,20.83
2023-02-20T03:39:22.676Z,20.23
2023-02-20T03:41:49.286Z,19.65
2023-02-20T03:44:15.926Z,19.85
2023-02-20T03:46:42.248Z,20.13
2023-02-20T03:49:08.566Z,19.77
2023-02-20T03:51:34.944Z,18.63
2023-02-20T03:54:01.375Z,18.90
2023-02-20T03:56:27.748Z,17.55
2023-02-20T03:58:54.416Z,17.67
2023-02-20T04:01:20.825Z,17.55
2023-02-20T04:03:47.867Z,17.50
2023-02-20T04:06:14.593Z,17.50
2023-02-20T04:08:41.205Z,18.13
2023-02-20T04:11:08.126Z,15.77
2023-02-20T04:13:34.494Z,16.50
2023-02-20T04:16:00.878Z,16.83
2023-02-20T04:18:27.914Z,16.02
2023-02-20T04:20:54.301Z,15.57
2023-02-20T04:23:20.753Z,15.20
2023-02-20T04:25:47.577Z,15.98
2023-02-20T04:28:14.219Z,15.27
2023-02-20T04:30:40.692Z,14.57
2023-02-20T04:33:07.079Z,15.70
2023-02-20T04:35:33.509Z,14.13
2023-02-20T04:38:00.093Z,14.32
2023-02-20T04:40:26.495Z,13.95
2023-02-20T04:42:53.172Z,13.55
2023-02-20T04:45:19.524Z,15.02
2023-02-20T04:47:45.837Z,13.15
2023-02-20T04:50:12.312Z,13.48
2023-02-20T04:52:38.633Z,13.40
2023-02-20T04:55:04.988Z,12.75
2023-02-20T04:57:31.459Z,13.60
2023-02-20T04:59:58.248Z,12.55
2023-02-20T05:02:25.210Z,12.32
2023-02-20T05:04:51.664Z,12.80
2023-02-20T05:07:18.528Z,13.20
2023-02-20T05:09:45.041Z,12.20
2023-02-20T05:12:11.448Z,11.73
2023-02-20T05:14:37.813Z,12.40
2023-02-20T05:17:04.245Z,11.38
2023-02-20T05:19:31.231Z,11.45
2023-02-20T05:21:57.915Z,12.18
2023-02-20T05:24:24.294Z,12.15
2023-02-20T05:26:50.903Z,11.60
2023-02-20T05:29:17.863Z,11.00
2023-02-20T05:31:44.389Z,11.07
2023-02-20T05:34:10.867Z,10.85
2023-02-20T05:36:37.158Z,11.45
2023-02-20T05:39:03.714Z,11.32
2023-02-20T05:41:30.236Z,11.18
2023-02-20T05:43:56.579Z,10.90
2023-02-20T05:46:23.054Z,10.82
2023-02-20T05:48:49.816Z,11.18
2023-02-20T05:51:16.779Z,10.18
2023-02-20T05:53:43.113Z,10.38
2023-02-20T05:56:09.538Z,10.40
2023-02-20T05:58:35.990Z,10.95
2023-02-20T06:01:02.567Z,9.25
2023-02-20T06:03:29.111Z,9.27
2023-02-20T06:05:55.483Z,10.02
2023-02-20T06:08:21.818Z,9.73
2023-02-20T06:10:48.372Z,9.82
2023-02-20T06:13:14.788Z,9.23
2023-02-20T06:15:41.112Z,9.48
2023-02-20T06:18:07.575Z,10.10
2023-02-20T06:20:33.919Z,9.60
2023-02-20T06:23:00.873Z,8.93
2023-02-20T06:25:27.679Z,9.30
2023-02-20T06:27:53.992Z,9.85
2023-02-20T06:30:20.374Z,9.73
2023-02-20T06:32:47.367Z,9.32
2023-02-20T06:35:13.997Z,9.45
2023-02-20T06:37:40.344Z,9.48
2023-02-20T06:40:06.768Z,8.82
2023-02-20T06:42:33.301Z,9.43
2023-02-20T06:44:59.618Z,8.43
2023-02-20T06:47:26.014Z,9.38
2023-02-20T06:49:52.598Z,8.98
2023-02-20T06:52:19.225Z,9.02
2023-02-20T06:54:45.848Z,8.82
2023-02-20T06:57:12.264Z,9.00
2023-02-20T06:59:38.679Z,9.35
2023-02-20T07:02:05.277Z,8.77
2023-02-20T07:04:31.811Z,9.10
2023-02-20T07:06:58.212Z,8.32
2023-02-20T07:09:25.022Z,8.82
2023-02-20T07:11:51.441Z,8.70
2023-02-20T07:14:17.862Z,8.75
2023-02-20T07:16:44.320Z,8.63
2023-02-20T07:19:10.653Z,8.52
2023-02-20T07:21:37.057Z,8.05
2023-02-20T07:24:03.459Z,7.53
2023-02-20T07:26:30.102Z,7.50
2023-02-20T07:28:56.648Z,7.47
2023-02-20T07:31:23.021Z,8.27
2023-02-20T07:33:49.764Z,7.50
2023-02-20T07:36:16.094Z,7.78
2023-02-20T07:38:42.402Z,7.60
2023-02-20T07:41:08.772Z,7.45
2023-02-20T07:43:35.641Z,7.10
2023-02-20T07:46:02.044Z,8.13
2023-02-20T07:48:28.406Z,7.57
2023-02-20T07:50:54.878Z,8.02
2023-02-20T07:53:21.231Z,8.35
2023-02-20T07:55:47.652Z,8.20
2023-02-20T07:58:14.096Z,8.88
2023-02-20T08:00:40.459Z,9.63
2023-02-20T08:03:07.653Z,8.90
2023-02-20T08:05:48.093Z,10.05
2023-02-20T08:08:15.647Z,9.93
2023-02-20T08:10:42.229Z,11.30
2023-02-20T08:13:08.823Z,11.75
2023-02-20T08:15:35.590Z,12.65
2023-02-20T08:18:03.336Z,14.00
2023-02-20T08:20:30.757Z,14.77
2023-02-20T08:22:57.255Z,15.18
2023-02-20T08:25:23.722Z,15.48
2023-02-20T08:27:50.273Z,15.38
2023-02-20T08:30:16.864Z,16.13
2023-02-20T08:32:43.705Z,16.45
2023-02-20T08:35:10.166Z,15.77
2023-02-20T08:37:36.501Z,17.60
2023-02-20T08:40:02.862Z,17.30
2023-02-20T08:42:29.363Z,16.23
2023-02-20T08:44:55.735Z,17.55
2023-02-20T08:47:22.101Z,17.38
2023-02-20T08:49:48.430Z,16.73
2023-02-20T08:52:14.959Z,17.58
2023-02-20T08:54:41.472Z,17.92
2023-02-20T08:57:07.813Z,19.13
2023-02-20T08:59:34.201Z,19.38
2023-02-20T09:02:00.650Z,19.48
2023-02-20T09:04:27.098Z,19.95
2023-02-20T09:06:53.501Z,21.30
2023-02-20T09:09:19.826Z,20.58
2023-02-20T09:11:46.305Z,21.60
2023-02-20T09:14:12.764Z,22.17
2023-02-20T09:16:39.084Z,22.75
2023-02-20T09:19:05.417Z,21.33
2023-02-20T09:21:31.888Z,22.45
2023-02-20T09:23:58.425Z,22.83
2023-02-20T09:26:25.123Z,23.48
2023-02-20T09:28:51.478Z,22.58
2023-02-20T09:31:17.836Z,22.20
2023-02-20T09:33:44.242Z,23.38
2023-02-20T09:36:10.899Z,22.50
2023-02-20T09:38:37.598Z,20.80
2023-02-20T09:41:04.022Z,22.85
2023-02-20T09:43:30.356Z,23.38
2023-02-20T09:45:56.889Z,22.65
2023-02-20T09:48:23.302Z,24.00
2023-02-20T09:50:49.723Z,27.15
2023-02-20T09:53:16.081Z,27.30
2023-02-20T09:55:42.442Z,26.92
2023-02-20T09:58:08.762Z,26.50
2023-02-20T10:00:35.238Z,26.63
2023-02-20T10:03:01.964Z,25.42
2023-02-20T10:05:28.261Z,25.20
2023-02-20T10:07:54.930Z,25.67
2023-02-20T10:10:21.214Z,25.45
2023-02-20T10:12:47.629Z,24.50
2023-02-20T10:15:14.024Z,25.38
2023-02-20T10:17:40.507Z,24.88
2023-02-20T10:20:07.313Z,26.00
2023-02-20T10:22:33.939Z,25.35
2023-02-20T10:25:00.261Z,23.42
2023-02-20T10:27:26.663Z,24.25
2023-02-20T10:29:52.989Z,22.67
2023-02-20T10:32:19.395Z,23.73
2023-02-20T10:34:46.086Z,24.00
2023-02-20T10:37:12.534Z,22.60
2023-02-20T10:39:39.555Z,21.58
2023-02-20T10:42:05.920Z,22.05
2023-02-20T10:44:35.512Z,21.63
2023-02-20T10:47:06.883Z,21.25
2023-02-20T10:49:33.328Z,21.88
2023-02-20T10:51:59.784Z,21.77
2023-02-20T10:54:26.113Z,23.00
2023-02-20T10:56:52.629Z,22.42
2023-02-20T10:59:19.037Z,21.52
2023-02-20T11:01:45.403Z,20.83
2023-02-20T11:04:12.120Z,20.65
2023-02-20T11:06:38.516Z,19.83
2023-02-20T11:09:04.925Z,19.60
2023-02-20T11:11:31.465Z,20.00
2023-02-20T11:13:58.191Z,20.80
2023-02-20T11:16:24.801Z,19.95
2023-02-20T11:18:51.257Z,20.00
2023-02-20T11:21:17.625Z,19.23
2023-02-20T11:23:44.075Z,18.75
2023-02-20T11:26:10.896Z,19.23
2023-02-20T11:28:37.378Z,19.35
2023-02-20T11:31:03.765Z,19.13
2023-02-20T11:33:30.363Z,18.65
2023-02-20T11:35:56.888Z,17.92
2023-02-20T11:38:23.299Z,18.50
2023-02-20T11:40:49.753Z,18.95
2023-02-20T11:43:16.232Z,17.88
2023-02-20T11:45:42.745Z,18.45
2023-02-20T11:48:09.062Z,18.63
2023-02-20T11:50:35.414Z,18.60
2023-02-20T11:53:01.907Z,17.90
2023-02-20T11:55:28.450Z,18.83
2023-02-20T11:57:54.815Z,18.20
2023-02-20T12:00:21.273Z,17.35
2023-02-20T12:02:47.709Z,18.38
2023-02-20T12:05:14.174Z,17.52
2023-02-20T12:07:40.525Z,16.88
2023-02-20T12:10:06.841Z,16.33
2023-02-20T12:12:33.183Z,16.80
2023-02-20T12:14:59.821Z,17.85
2023-02-20T12:17:26.355Z,16.95
2023-02-20T12:19:52.688Z,16.10
2023-02-20T12:22:19.163Z,120.18
2023-02-20T12:24:45.660Z,213.27
2023-02-20T12:27:12.047Z,154.60
2023-02-20T12:29:38.379Z,125.80
2023-02-20T12:32:05.145Z,118.55
2023-02-20T12:34:31.624Z,109.35
2023-02-20T12:36:58.308Z,94.60
2023-02-20T12:39:25.026Z,86.95
2023-02-20T12:41:51.314Z,81.13
2023-02-20T12:44:17.704Z,74.22
2023-02-20T12:46:44.103Z,123.18
2023-02-20T12:49:10.608Z,198.15
2023-02-20T12:51:36.926Z,201.02
2023-02-20T12:54:03.306Z,168.15
2023-02-20T12:56:29.681Z,144.70
2023-02-20T12:58:56.248Z,129.63
2023-02-20T13:01:34.325Z,121.70
2023-02-20T13:04:05.444Z,113.82
2023-02-20T13:06:31.840Z,167.75
2023-02-20T13:08:58.268Z,289.00
2023-02-20T13:11:24.677Z,246.50
2023-02-20T13:13:51.386Z,225.70
2023-02-20T13:16:17.789Z,207.52
2023-02-20T13:18:44.276Z,193.15
2023-02-20T13:21:10.850Z,183.38
2023-02-20T13:23:37.282Z,170.35
2023-02-20T13:26:03.961Z,160.68
2023-02-20T13:28:30.318Z,149.88
2023-02-20T13:30:56.653Z,142.23
2023-02-20T13:33:23.069Z,132.05
2023-02-20T13:35:49.494Z,119.90
2023-02-20T13:38:15.961Z,116.20
2023-02-20T13:40:42.382Z,107.70
2023-02-20T13:43:08.824Z,105.22
2023-02-20T13:45:35.169Z,97.13
2023-02-20T13:48:01.573Z,90.93
2023-02-20T13:50:28.026Z,166.93
2023-02-20T13:52:54.418Z,225.15
2023-02-20T13:55:21.227Z,224.52
2023-02-20T13:57:47.677Z,198.77
2023-02-20T14:00:14.537Z,183.68
2023-02-20T14:02:40.916Z,163.35
2023-02-20T14:05:07.635Z,151.55
2023-02-20T14:07:34.202Z,143.05
2023-02-20T14:10:01.048Z,133.13
2023-02-20T14:12:28.004Z,126.30
2023-02-20T14:14:54.541Z,122.75
2023-02-20T14:17:20.980Z,231.93
2023-02-20T14:19:47.419Z,250.00
2023-02-20T14:22:13.776Z,213.48
2023-02-20T14:24:40.371Z,190.50
2023-02-20T14:27:06.698Z,181.70
2023-02-20T14:29:33.198Z,170.80
2023-02-20T14:31:59.860Z,188.30
2023-02-20T14:34:26.398Z,300.40
2023-02-20T14:36:53.141Z,278.90
2023-02-20T14:39:19.727Z,254.57
2023-02-20T14:41:46.048Z,242.95
2023-02-20T14:44:12.439Z,224.98
2023-02-20T14:46:38.996Z,210.75
2023-02-20T14:49:05.326Z,198.38
2023-02-20T14:51:31.654Z,182.65
2023-02-20T14:53:58.059Z,175.25
2023-02-20T14:56:24.616Z,162.70
2023-02-20T14:58:51.380Z,155.95
2023-02-20T15:01:17.823Z,145.95
2023-02-20T15:03:44.494Z,142.10
2023-02-20T15:06:11.229Z,134.20
2023-02-20T15:08:38.058Z,126.00
2023-02-20T15:11:04.424Z,120.65
2023-02-20T15:13:30.768Z,136.32
2023-02-20T15:15:57.245Z,216.85
2023-02-20T15:18:24.790Z,256.00
2023-02-20T15:20:51.184Z,253.43
2023-02-20T15:23:17.618Z,233.23
2023-02-20T15:25:43.934Z,213.52
2023-02-20T15:28:10.589Z,195.90
2023-02-20T15:30:37.009Z,183.60
2023-02-20T15:33:03.690Z,170.18
2023-02-20T15:35:30.167Z,160.23
2023-02-20T15:37:56.486Z,148.77
2023-02-20T15:40:23.042Z,136.77
2023-02-20T15:42:49.440Z,127.68
2023-02-20T15:45:16.097Z,242.93
2023-02-20T15:47:42.469Z,275.27
2023-02-20T15:50:08.805Z,266.40
2023-02-20T15:52:35.337Z,252.00
2023-02-20T15:55:01.728Z,235.40
2023-02-20T15:57:28.367Z,222.32
2023-02-20T15:59:55.393Z,209.68
2023-02-20T16:02:22.030Z,198.45
2023-02-20T16:04:48.475Z,188.40
2023-02-20T16:07:15.295Z,182.68
2023-02-20T16:09:42.055Z,176.68
2023-02-20T16:12:08.548Z,297.63
2023-02-20T16:14:34.940Z,252.10
2023-02-20T16:17:01.418Z,224.88
2023-02-20T16:19:40.058Z,206.95
2023-02-20T16:22:08.530Z,191.38
2023-02-20T16:24:34.989Z,179.52
2023-02-20T16:27:01.324Z,171.10
2023-02-20T16:29:27.925Z,155.73
2023-02-20T16:31:54.400Z,140.43
2023-02-20T16:34:22.067Z,125.30
2023-02-20T16:36:49.074Z,122.32
2023-02-20T16:39:25.688Z,116.28
2023-02-20T16:41:52.528Z,111.63
2023-02-20T16:44:19.536Z,277.88
2023-02-20T16:46:46.056Z,275.90
2023-02-20T16:49:12.400Z,265.27
2023-02-20T16:51:39.014Z,234.48
2023-02-20T16:54:05.908Z,224.70
2023-02-20T16:56:32.342Z,208.65
2023-02-20T16:58:58.780Z,214.65
2023-02-20T17:01:25.377Z,259.88
2023-02-20T17:03:51.897Z,281.55
2023-02-20T17:06:18.249Z,269.75
2023-02-20T17:08:44.618Z,258.55
2023-02-20T17:11:12.009Z,249.48
2023-02-20T17:13:38.686Z,231.38
2023-02-20T17:16:05.231Z,216.35
2023-02-20T17:18:32.056Z,209.23
2023-02-20T17:20:59.123Z,193.55
2023-02-20T17:23:26.231Z,176.18
2023-02-20T17:25:53.360Z,173.10
2023-02-20T17:28:19.722Z,165.95
2023-02-20T17:30:46.116Z,150.68
2023-02-20T17:33:12.900Z,145.60
2023-02-20T17:35:39.372Z,140.85
2023-02-20T17:38:06.315Z,130.25
2023-02-20T17:40:32.679Z,124.57
2023-02-20T17:42:59.336Z,122.50
2023-02-20T17:45:25.663Z,116.10
2023-02-20T17:47:52.232Z,109.78
2023-02-20T17:50:18.603Z,175.77
2023-02-20T17:52:45.283Z,250.88
2023-02-20T17:55:11.667Z,280.17
2023-02-20T17:57:38.012Z,256.75
2023-02-20T18:00:04.417Z,238.95
2023-02-20T18:02:30.899Z,235.38
2023-02-20T18:04:57.275Z,227.05
2023-02-20T18:07:23.728Z,227.32
2023-02-20T18:09:50.188Z,215.57
2023-02-20T18:12:17.009Z,339.33
2023-02-20T18:14:43.530Z,598.50
2023-02-20T18:17:09.969Z,556.50
2023-02-20T18:19:36.360Z,471.90
2023-02-20T18:22:02.984Z,276.23
2023-02-20T18:24:30.498Z,395.02
2023-02-20T18:26:56.924Z,351.52
2023-02-20T18:29:23.718Z,332.40
2023-02-20T18:31:50.351Z,312.98
2023-02-20T18:34:16.862Z,294.58
2023-02-20T18:36:43.371Z,284.83
2023-02-20T18:39:09.815Z,267.02
2023-02-20T18:41:36.221Z,261.20
2023-02-20T18:44:02.963Z,258.85
2023-02-20T18:46:29.335Z,243.15
2023-02-20T18:48:56.154Z,238.50
2023-02-20T18:51:25.010Z,236.50
2023-02-20T18:53:51.567Z,225.93
2023-02-20T18:56:18.118Z,218.18
2023-02-20T18:58:44.514Z,212.85
2023-02-20T19:01:11.307Z,206.10
2023-02-20T19:03:38.059Z,204.55
2023-02-20T19:06:04.433Z,198.73
2023-02-20T19:08:31.651Z,194.57
2023-02-20T19:10:58.407Z,187.77
2023-02-20T19:13:24.794Z,183.07
2023-02-20T19:15:51.158Z,176.05
2023-02-20T19:18:17.978Z,171.65
2023-02-20T19:20:44.261Z,166.13
2023-02-20T19:23:10.838Z,166.55
2023-02-20T19:25:37.162Z,159.77
2023-02-20T19:28:03.568Z,160.63
2023-02-20T19:30:30.268Z,156.27
2023-02-20T19:32:57.218Z,151.95
2023-02-20T19:35:23.568Z,142.68
2023-02-20T19:37:50.317Z,142.07
2023-02-20T19:40:16.932Z,138.88
2023-02-20T19:42:43.328Z,136.75
2023-02-20T19:45:09.701Z,135.50
2023-02-20T19:47:36.207Z,134.98
2023-02-20T19:50:02.719Z,133.00
2023-02-20T19:52:29.893Z,129.23
2023-02-20T19:54:56.311Z,126.30
2023-02-20T19:57:22.912Z,120.55
2023-02-20T19:59:49.327Z,120.53
2023-02-20T20:02:15.758Z,120.07
2023-02-20T20:04:42.611Z,112.68
2023-02-20T20:07:09.507Z,112.55
2023-02-20T20:09:37.596Z,109.70
2023-02-20T20:12:04.351Z,107.85
2023-02-20T20:14:30.734Z,108.28
2023-02-20T20:16:57.062Z,101.13
2023-02-20T20:19:23.448Z,103.03
2023-02-20T20:21:49.855Z,97.72
2023-02-20T20:24:16.539Z,97.18
2023-02-20T20:26:42.929Z,95.15
2023-02-20T20:29:09.630Z,94.63
2023-02-20T20:31:36.079Z,91.95
2023-02-20T20:34:02.533Z,89.93
2023-02-20T20:36:29.282Z,86.40
2023-02-20T20:38:55.781Z,84.28
2023-02-20T20:41:22.844Z,83.95
2023-02-20T20:43:50.056Z,82.75
2023-02-20T20:46:16.965Z,81.63
2023-02-20T20:48:43.441Z,81.63
2023-02-20T20:51:09.773Z,78.60
2023-02-20T20:53:36.615Z,77.22
2023-02-20T20:56:02.913Z,73.65
2023-02-20T20:58:29.642Z,72.85
2023-02-20T21:00:56.218Z,73.20
2023-02-20T21:03:22.695Z,69.38
2023-02-20T21:05:49.378Z,70.05
2023-02-20T21:08:15.754Z,66.70
2023-02-20T21:10:42.858Z,65.70
2023-02-20T21:13:09.229Z,64.85
2023-02-20T21:15:35.594Z,63.35
2023-02-20T21:18:02.212Z,63.55
2023-02-20T21:20:28.749Z,61.35
2023-02-20T21:22:55.277Z,61.33
2023-02-20T21:25:21.674Z,59.58
2023-02-20T21:27:48.483Z,56.10
2023-02-20T21:30:15.255Z,56.15
2023-02-20T21:32:41.794Z,56.97
2023-02-20T21:35:08.375Z,56.47
2023-02-20T21:37:35.141Z,53.42
2023-02-20T21:40:01.511Z,51.78
2023-02-20T21:42:28.212Z,52.33
2023-02-20T21:44:55.019Z,49.60
2023-02-20T21:47:21.362Z,48.80
2023-02-20T21:49:47.728Z,49.10
2023-02-20T21:52:14.096Z,48.15
2023-02-20T21:54:40.418Z,47.22
2023-02-20T21:57:07.169Z,46.40
2023-02-20T21:59:33.528Z,46.63
2023-02-20T22:01:59.990Z,47.25
2023-02-20T22:04:26.462Z,43.85
2023-02-20T22:06:52.911Z,44.55
2023-02-20T22:09:19.327Z,43.05
2023-02-20T22:11:45.912Z,43.50
2023-02-20T22:14:12.677Z,41.67
2023-02-20T22:16:38.994Z,38.60
2023-02-20T22:19:05.373Z,38.80
2023-02-20T22:21:32.152Z,38.47
2023-02-20T22:23:58.461Z,37.30
2023-02-20T22:26:25.487Z,36.30
2023-02-20T22:28:51.950Z,37.05
2023-02-20T22:31:18.797Z,36.33
2023-02-20T22:33:45.223Z,35.95
2023-02-20T22:36:11.709Z,34.13
2023-02-20T22:38:38.156Z,34.35
2023-02-20T22:41:04.518Z,33.33
2023-02-20T22:43:30.963Z,33.08
2023-02-20T22:45:57.419Z,32.28
2023-02-20T22:48:23.750Z,31.85
2023-02-20T22:50:50.280Z,32.20
2023-02-20T22:53:17.005Z,30.85
2023-02-20T22:55:43.313Z,29.13
2023-02-20T22:58:09.945Z,29.17
2023-02-20T23:00:36.637Z,28.67
2023-02-20T23:03:03.469Z,28.55
2023-02-20T23:05:30.253Z,29.13
2023-02-20T23:07:56.555Z,28.13
2023-02-20T23:10:22.897Z,27.05
2023-02-20T23:12:49.263Z,26.65
2023-02-20T23:15:17.012Z,27.52
2023-02-20T23:17:43.923Z,25.38
2023-02-20T23:20:10.605Z,25.15
2023-02-20T23:22:37.307Z,23.95
2023-02-20T23:25:03.701Z,24.00
2023-02-20T23:27:30.075Z,25.48
2023-02-20T23:29:56.495Z,23.85
2023-02-20T23:32:22.878Z,23.20
2023-02-20T23:34:49.343Z,23.15
2023-02-20T23:37:15.786Z,21.77
2023-02-20T23:39:42.338Z,22.73
2023-02-20T23:42:08.709Z,20.67
2023-02-20T23:44:35.174Z,22.38
2023-02-20T23:47:01.614Z,21.77
2023-02-20T23:49:27.976Z,21.70
2023-02-20T23:51:54.554Z,21.13
2023-02-20T23:54:21.105Z,21.70
2023-02-20T23:56:47.466Z,20.58
2023-02-20T23:59:13.844Z,20.40
